Aeroporto :
LOGIN :

Iscrizione | Disclaimer

   EN    FR    IT 

 










Sommario :    VFR   VFR Marginale   IFR   IFR Intensivo   IFR Molto Intensivo
Visibilità : 
Base nubi : 
>= 8 km
>= 3000ft
5 / 8 km
1000 / 3000 ft
1500m / 5 km
500 / 1000 ft
800 / 1500m
200 / 500 ft
< 800m
< 200 ft
Simboli :   Temporali  Nebbia  Neve Forte  Precipitazioni Forti  Vento > 20 kt
SIGMETs :   Varie  Temporali  Ghiacco  Turbolenza  Onda orograficha  Ceneri Vulcaniche







- Altitudine del aeroporto : 197 ft
- Codice IATA : XOG
- Carte del aeroporto


LFMO - Orange

ULTIMO METAR :
  • 191630Z AUTO 23010KT 190V270 CAVOK 23/08 Q1024 NOSIG

METARs OBSOLETI :
  • 191600Z AUTO 22010KT 170V250 CAVOK 23/07 Q1024 NOSIG
  • 191530Z AUTO 19005KT 130V240 CAVOK 24/07 Q1024 NOSIG
  • 191500Z AUTO 20005KT 150V260 CAVOK 24/07 Q1024 NOSIG
  • 191430Z AUTO 19006KT 140V240 CAVOK 24/07 Q1024 NOSIG
  • 191400Z AUTO 18005KT 120V220 CAVOK 24/07 Q1024 NOSIG

TAF TAF LFMO
Valido dal 19 a 15 ore il 20 a 15 ore UTC


191400Z 1915/2015 20005KT CAVOK
Nessun NOTAM noto per questo aeroporto.
1 SIGMET conosciuto per la FIR Marseille (LFMM) :
 
Turbolenza severa
LFMM SIGMET 5 VALID 191300/191700 LFPW
LFMM MARSEILLE FIR/UIR SEV TURB FCST WI N4230 E00230 - N4415 E00245 - N4430 E00315 - N4415 E00345 - N4230 E00230 SFC/FL060 STNR NC=



MetMap, La meteo Aeronautica in un colpo d'occhio ! - Copyright ORBIFLY Dicembre 2007 - Disclaimer

ORBIFLY MET'MAP TEAM :

Programmazione e sviluppo : Alexandra Zaïnal
Concezione e sviluppo : Baudouin d'Aumeries
Co-Programmazione e sviluppo : Marc-Olivier Méhu
Supporto tecnico e logistico : Manuel Goepfert
Aiuto per la traduzione : Arnaldo La Scala

Contatto : metmap@orbifly.com




FONTI E CREDITI :

   NOAA